createdAt,value
2022-11-05T00:00:17.955Z,1005.20
2022-11-05T00:01:17.954Z,1005.24
2022-11-05T00:02:17.930Z,1005.25
2022-11-05T00:03:18.055Z,1005.21
2022-11-05T00:04:17.925Z,1005.23
2022-11-05T00:05:17.977Z,1005.23
2022-11-05T00:06:17.977Z,1005.24
2022-11-05T00:07:17.933Z,1005.23
2022-11-05T00:08:17.935Z,1005.24
2022-11-05T00:09:17.935Z,1005.25
2022-11-05T00:10:17.943Z,1005.32
2022-11-05T00:11:18.524Z,1005.30
2022-11-05T00:12:17.940Z,1005.27
2022-11-05T00:13:17.935Z,1005.29
2022-11-05T00:14:17.924Z,1005.33
2022-11-05T00:15:17.925Z,1005.29
2022-11-05T00:16:17.967Z,1005.30
2022-11-05T00:17:17.928Z,1005.31
2022-11-05T00:18:17.926Z,1005.33
2022-11-05T00:19:18.004Z,1005.32
2022-11-05T00:20:17.952Z,1005.36
2022-11-05T00:21:17.911Z,1005.32
2022-11-05T00:22:17.964Z,1005.35
2022-11-05T00:25:00.426Z,1005.38
2022-11-05T00:26:00.423Z,1005.42
2022-11-05T00:27:00.422Z,1005.38
2022-11-05T00:28:00.425Z,1005.43
2022-11-05T00:29:00.412Z,1005.43
2022-11-05T00:30:00.427Z,1005.44
2022-11-05T00:31:00.420Z,1005.47
2022-11-05T00:32:00.417Z,1005.49
2022-11-05T00:33:00.433Z,1005.48
2022-11-05T00:34:00.413Z,1005.48
2022-11-05T00:35:00.497Z,1005.50
2022-11-05T00:36:00.411Z,1005.48
2022-11-05T00:37:00.407Z,1005.46
2022-11-05T00:38:00.416Z,1005.47
2022-11-05T00:39:00.417Z,1005.48
2022-11-05T00:40:00.402Z,1005.50
2022-11-05T00:41:00.402Z,1005.53
2022-11-05T00:42:00.413Z,1005.54
2022-11-05T00:43:00.420Z,1005.50
2022-11-05T00:44:00.400Z,1005.57
2022-11-05T00:45:00.412Z,1005.56
2022-11-05T00:46:00.396Z,1005.56
2022-11-05T00:47:00.399Z,1005.60
2022-11-05T00:48:00.407Z,1005.65
2022-11-05T00:49:00.404Z,1005.62
2022-11-05T00:50:00.419Z,1005.60
2022-11-05T00:51:00.420Z,1005.65
2022-11-05T00:52:00.408Z,1005.63
2022-11-05T00:53:00.409Z,1005.63
2022-11-05T00:54:00.400Z,1005.60
2022-11-05T00:55:00.417Z,1005.69
2022-11-05T00:56:00.384Z,1005.66
2022-11-05T00:57:04.492Z,1005.70
2022-11-05T00:58:00.392Z,1005.72
2022-11-05T00:59:00.380Z,1005.74
2022-11-05T01:00:00.380Z,1005.74
2022-11-05T01:01:00.393Z,1005.73
2022-11-05T01:02:00.518Z,1005.82
2022-11-05T01:03:00.377Z,1005.74
2022-11-05T01:04:00.383Z,1005.79
2022-11-05T01:05:00.393Z,1005.78
2022-11-05T01:06:00.388Z,1005.81
2022-11-05T01:07:00.384Z,1005.79
2022-11-05T01:08:00.377Z,1005.81
2022-11-05T01:09:00.366Z,1005.88
2022-11-05T01:10:00.399Z,1005.85
2022-11-05T01:11:00.380Z,1005.85
2022-11-05T01:12:00.368Z,1005.87
2022-11-05T01:13:00.371Z,1005.93
2022-11-05T01:14:00.373Z,1005.88
2022-11-05T01:15:00.381Z,1005.90
2022-11-05T01:16:00.385Z,1005.90
2022-11-05T01:17:00.368Z,1005.88
2022-11-05T01:18:00.364Z,1005.94
2022-11-05T01:19:00.362Z,1005.90
2022-11-05T01:20:00.368Z,1005.92
2022-11-05T01:21:00.358Z,1005.92
2022-11-05T01:22:00.382Z,1005.92
2022-11-05T01:23:00.369Z,1005.92
2022-11-05T01:24:00.361Z,1005.94
2022-11-05T01:25:00.412Z,1005.92
2022-11-05T01:26:00.349Z,1005.92
2022-11-05T01:27:00.357Z,1005.91
2022-11-05T01:28:00.361Z,1005.94
2022-11-05T01:29:00.615Z,1005.94
2022-11-05T01:30:00.340Z,1005.95
2022-11-05T01:31:00.352Z,1005.94
2022-11-05T01:32:00.343Z,1005.95
2022-11-05T01:33:00.364Z,1005.94
2022-11-05T01:34:00.349Z,1005.98
2022-11-05T01:35:00.353Z,1005.95
2022-11-05T01:36:00.349Z,1006.03
2022-11-05T01:37:00.369Z,1005.98
2022-11-05T01:38:00.344Z,1006.03
2022-11-05T01:39:00.349Z,1006.02
2022-11-05T01:40:00.326Z,1006.02
2022-11-05T01:41:00.337Z,1006.04
2022-11-05T01:42:00.329Z,1005.99
2022-11-05T01:43:00.355Z,1006.04
2022-11-05T01:44:00.361Z,1006.09
2022-11-05T01:45:00.354Z,1006.10
2022-11-05T01:46:00.317Z,1006.13
2022-11-05T01:47:00.334Z,1006.07
2022-11-05T01:48:00.362Z,1006.08
2022-11-05T01:49:03.328Z,1006.08
2022-11-05T01:50:00.352Z,1006.08
2022-11-05T01:51:00.324Z,1006.08
2022-11-05T01:52:00.338Z,1006.11
2022-11-05T01:53:00.343Z,1006.06
2022-11-05T01:54:00.320Z,1006.03
2022-11-05T01:55:00.361Z,1006.01
2022-11-05T01:56:00.380Z,1006.05
2022-11-05T01:57:00.306Z,1006.08
2022-11-05T01:58:00.322Z,1006.11
2022-11-05T01:59:00.314Z,1006.07
2022-11-05T02:00:00.321Z,1006.16
2022-11-05T02:01:00.326Z,1006.13
2022-11-05T02:02:01.855Z,1006.19
2022-11-05T02:03:00.388Z,1006.20
2022-11-05T02:04:00.329Z,1006.24
2022-11-05T02:05:00.298Z,1006.25
2022-11-05T02:06:00.305Z,1006.28
2022-11-05T02:07:00.317Z,1006.30
2022-11-05T02:08:00.321Z,1006.35
2022-11-05T02:09:00.301Z,1006.37
2022-11-05T02:10:00.290Z,1006.33
2022-11-05T02:11:00.289Z,1006.34
2022-11-05T02:12:00.313Z,1006.34
2022-11-05T02:13:00.313Z,1006.37
2022-11-05T02:14:00.293Z,1006.34
2022-11-05T02:15:00.284Z,1006.36
2022-11-05T02:16:00.296Z,1006.41
2022-11-05T02:17:00.294Z,1006.39
2022-11-05T02:18:00.304Z,1006.40
2022-11-05T02:19:00.293Z,1006.42
2022-11-05T02:20:00.283Z,1006.42
2022-11-05T02:21:00.286Z,1006.43
2022-11-05T02:22:00.302Z,1006.43
2022-11-05T02:23:00.284Z,1006.47
2022-11-05T02:24:00.283Z,1006.43
2022-11-05T02:25:00.273Z,1006.48
2022-11-05T02:26:00.276Z,1006.49
2022-11-05T02:27:00.272Z,1006.49
2022-11-05T02:28:00.298Z,1006.49
2022-11-05T02:29:00.274Z,1006.52
2022-11-05T02:30:00.268Z,1006.52
2022-11-05T02:31:00.272Z,1006.53
2022-11-05T02:32:00.259Z,1006.55
2022-11-05T02:33:00.282Z,1006.51
2022-11-05T02:34:00.284Z,1006.53
2022-11-05T02:35:00.256Z,1006.58
2022-11-05T02:36:00.253Z,1006.53
2022-11-05T02:37:00.251Z,1006.61
2022-11-05T02:38:00.260Z,1006.61
2022-11-05T02:39:00.267Z,1006.67
2022-11-05T02:40:00.271Z,1006.66
2022-11-05T02:41:00.246Z,1006.72
2022-11-05T02:42:04.766Z,1006.68
2022-11-05T02:43:00.333Z,1006.67
2022-11-05T02:44:00.247Z,1006.68
2022-11-05T02:45:00.254Z,1006.70
2022-11-05T02:46:00.246Z,1006.66
2022-11-05T02:47:00.265Z,1006.67
2022-11-05T02:48:00.247Z,1006.68
2022-11-05T02:49:00.264Z,1006.66
2022-11-05T02:50:00.269Z,1006.74
2022-11-05T02:51:00.234Z,1006.76
2022-11-05T02:52:00.246Z,1006.77
2022-11-05T02:53:00.236Z,1006.74
2022-11-05T02:54:00.239Z,1006.77
2022-11-05T02:55:00.260Z,1006.79
2022-11-05T02:56:00.243Z,1006.77
2022-11-05T02:57:00.233Z,1006.79
2022-11-05T02:58:00.233Z,1006.78
2022-11-05T02:59:00.216Z,1006.77
2022-11-05T03:00:00.255Z,1006.80
2022-11-05T03:01:00.230Z,1006.79
2022-11-05T03:02:00.404Z,1006.80
2022-11-05T03:03:00.318Z,1006.81
2022-11-05T03:04:00.211Z,1006.85
2022-11-05T03:05:00.216Z,1006.83
2022-11-05T03:06:00.217Z,1006.84
2022-11-05T03:07:00.230Z,1006.85
2022-11-05T03:08:00.207Z,1006.85
2022-11-05T03:09:00.215Z,1006.83
2022-11-05T03:10:00.206Z,1006.90
2022-11-05T03:11:00.212Z,1006.89
2022-11-05T03:12:00.210Z,1006.91
2022-11-05T03:13:00.207Z,1006.92
2022-11-05T03:14:00.233Z,1006.91
2022-11-05T03:15:00.223Z,1006.96
2022-11-05T03:16:00.197Z,1006.94
2022-11-05T03:17:00.205Z,1006.94
2022-11-05T03:18:00.205Z,1006.93
2022-11-05T03:19:00.191Z,1006.98
2022-11-05T03:20:00.207Z,1007.00
2022-11-05T03:21:00.203Z,1007.03
2022-11-05T03:22:00.202Z,1007.07
2022-11-05T03:23:00.184Z,1007.06
2022-11-05T03:24:00.181Z,1006.98
2022-11-05T03:25:00.200Z,1007.04
2022-11-05T03:26:00.176Z,1007.04
2022-11-05T03:27:00.189Z,1007.09
2022-11-05T03:28:00.185Z,1007.05
2022-11-05T03:29:00.201Z,1007.04
2022-11-05T03:30:00.192Z,1007.04
2022-11-05T03:31:00.196Z,1007.10
2022-11-05T03:32:00.169Z,1007.10
2022-11-05T03:33:00.179Z,1007.13
2022-11-05T03:34:00.181Z,1007.19
2022-11-05T03:35:00.181Z,1007.13
2022-11-05T03:36:00.175Z,1007.20
2022-11-05T03:37:00.178Z,1007.21
2022-11-05T03:38:00.175Z,1007.24
2022-11-05T03:39:00.155Z,1007.26
2022-11-05T03:40:00.191Z,1007.25
2022-11-05T03:41:00.164Z,1007.20
2022-11-05T03:42:00.171Z,1007.27
2022-11-05T03:43:00.151Z,1007.27
2022-11-05T03:44:00.155Z,1007.27
2022-11-05T03:45:00.165Z,1007.31
2022-11-05T03:46:00.153Z,1007.27
2022-11-05T03:47:00.158Z,1007.30
2022-11-05T03:48:00.160Z,1007.32
2022-11-05T03:49:00.268Z,1007.38
2022-11-05T03:50:00.186Z,1007.34
2022-11-05T03:51:00.147Z,1007.32
2022-11-05T03:52:00.167Z,1007.37
2022-11-05T03:53:00.164Z,1007.39
2022-11-05T03:54:00.153Z,1007.41
2022-11-05T03:55:00.138Z,1007.43
2022-11-05T03:56:00.131Z,1007.46
2022-11-05T03:57:00.141Z,1007.45
2022-11-05T03:58:00.153Z,1007.44
2022-11-05T03:59:00.135Z,1007.44
2022-11-05T04:00:00.125Z,1007.39
2022-11-05T04:01:00.129Z,1007.44
2022-11-05T04:02:00.225Z,1007.44
2022-11-05T04:03:00.247Z,1007.48
2022-11-05T04:04:00.129Z,1007.49
2022-11-05T04:05:00.119Z,1007.50
2022-11-05T04:06:00.121Z,1007.48
2022-11-05T04:07:00.129Z,1007.52
2022-11-05T04:08:00.133Z,1007.58
2022-11-05T04:09:00.112Z,1007.57
2022-11-05T04:10:00.136Z,1007.60
2022-11-05T04:11:00.143Z,1007.61
2022-11-05T04:12:00.108Z,1007.67
2022-11-05T04:13:00.114Z,1007.63
2022-11-05T04:14:00.127Z,1007.69
2022-11-05T04:15:00.130Z,1007.69
2022-11-05T04:16:00.121Z,1007.71
2022-11-05T04:17:00.128Z,1007.70
2022-11-05T04:18:00.109Z,1007.72
2022-11-05T04:19:00.115Z,1007.71
2022-11-05T04:20:00.128Z,1007.71
2022-11-05T04:21:00.094Z,1007.73
2022-11-05T04:22:00.112Z,1007.76
2022-11-05T04:23:00.102Z,1007.78
2022-11-05T04:24:00.118Z,1007.72
2022-11-05T04:25:00.123Z,1007.75
2022-11-05T04:26:00.091Z,1007.77
2022-11-05T04:27:00.091Z,1007.72
2022-11-05T04:28:00.093Z,1007.78
2022-11-05T04:29:03.859Z,1007.80
2022-11-05T04:30:00.106Z,1007.78
2022-11-05T04:31:00.099Z,1007.80
2022-11-05T04:32:00.092Z,1007.81
2022-11-05T04:33:00.094Z,1007.87
2022-11-05T04:34:00.083Z,1007.82
2022-11-05T04:35:00.175Z,1007.91
2022-11-05T04:36:00.087Z,1007.90
2022-11-05T04:37:00.088Z,1007.91
2022-11-05T04:38:00.096Z,1007.91
2022-11-05T04:39:00.084Z,1007.92
2022-11-05T04:40:00.096Z,1007.93
2022-11-05T04:41:00.089Z,1007.94
2022-11-05T04:42:00.067Z,1007.97
2022-11-05T04:43:00.080Z,1007.99
2022-11-05T04:44:00.068Z,1007.99
2022-11-05T04:45:00.078Z,1008.00
2022-11-05T04:46:00.082Z,1008.00
2022-11-05T04:47:00.073Z,1008.01
2022-11-05T04:48:00.054Z,1007.98
2022-11-05T04:49:00.078Z,1007.94
2022-11-05T04:50:00.053Z,1007.95
2022-11-05T04:51:03.270Z,1007.93
2022-11-05T04:52:00.075Z,1007.89
2022-11-05T04:53:00.050Z,1007.94
2022-11-05T04:54:00.043Z,1007.93
2022-11-05T04:55:00.061Z,1007.95
2022-11-05T04:56:00.051Z,1007.94
2022-11-05T04:57:00.061Z,1007.93
2022-11-05T04:58:00.046Z,1007.96
2022-11-05T04:59:00.049Z,1007.95
2022-11-05T05:00:00.043Z,1007.99
2022-11-05T05:01:00.094Z,1007.98
2022-11-05T05:02:00.053Z,1007.99
2022-11-05T05:03:00.039Z,1007.99
2022-11-05T05:04:00.031Z,1008.00
2022-11-05T05:05:00.034Z,1007.96
2022-11-05T05:06:03.802Z,1007.95
2022-11-05T05:07:00.050Z,1007.97
2022-11-05T05:08:00.051Z,1007.98
2022-11-05T05:09:00.021Z,1007.96
2022-11-05T05:10:00.031Z,1007.95
2022-11-05T05:11:00.056Z,1007.92
2022-11-05T05:12:00.035Z,1007.93
2022-11-05T05:13:00.027Z,1007.93
2022-11-05T05:14:00.018Z,1007.95
2022-11-05T05:15:00.020Z,1007.91
2022-11-05T05:16:00.025Z,1007.92
2022-11-05T05:17:00.024Z,1007.90
2022-11-05T05:18:00.022Z,1007.94
2022-11-05T05:19:00.013Z,1007.92
2022-11-05T05:20:00.013Z,1007.93
2022-11-05T05:21:00.003Z,1007.95
2022-11-05T05:22:00.031Z,1007.98
2022-11-05T05:23:00.000Z,1007.96
2022-11-05T05:24:00.001Z,1007.98
2022-11-05T05:24:59.998Z,1008.02
2022-11-05T05:26:00.007Z,1008.07
2022-11-05T05:27:00.001Z,1008.09
2022-11-05T05:28:00.010Z,1008.11
2022-11-05T05:29:00.005Z,1008.12
2022-11-05T05:30:00.008Z,1008.12
2022-11-05T05:30:59.986Z,1008.14
2022-11-05T05:31:59.987Z,1008.19
2022-11-05T05:32:59.981Z,1008.17
2022-11-05T05:33:59.994Z,1008.23
2022-11-05T05:35:00.006Z,1008.21
2022-11-05T05:35:59.979Z,1008.26
2022-11-05T05:36:59.977Z,1008.28
2022-11-05T05:37:59.973Z,1008.30
2022-11-05T05:38:59.990Z,1008.32
2022-11-05T05:40:00.009Z,1008.32
2022-11-05T05:40:59.978Z,1008.37
2022-11-05T05:41:59.979Z,1008.41
2022-11-05T05:42:59.966Z,1008.40
2022-11-05T05:43:59.979Z,1008.39
2022-11-05T05:44:59.975Z,1008.46
2022-11-05T05:45:59.980Z,1008.43
2022-11-05T05:47:00.018Z,1008.48
2022-11-05T05:47:59.957Z,1008.50
2022-11-05T05:48:59.978Z,1008.52
2022-11-05T05:49:59.966Z,1008.52
2022-11-05T05:50:59.980Z,1008.51
2022-11-05T05:51:59.961Z,1008.52
2022-11-05T05:52:59.973Z,1008.58
2022-11-05T05:53:59.948Z,1008.55
2022-11-05T05:54:59.956Z,1008.58
2022-11-05T05:55:59.946Z,1008.58
2022-11-05T05:56:59.942Z,1008.58
2022-11-05T05:57:59.960Z,1008.57
2022-11-05T05:58:59.941Z,1008.57
2022-11-05T05:59:59.940Z,1008.62
2022-11-05T06:00:59.960Z,1008.62
2022-11-05T06:02:00.045Z,1008.63
2022-11-05T06:03:00.027Z,1008.66
2022-11-05T06:03:59.944Z,1008.66
2022-11-05T06:04:59.939Z,1008.74
2022-11-05T06:05:59.962Z,1008.74
2022-11-05T06:06:59.937Z,1008.72
2022-11-05T06:07:59.954Z,1008.77
2022-11-05T06:08:59.935Z,1008.75
2022-11-05T06:09:59.936Z,1008.74
2022-11-05T06:10:59.985Z,1008.76
2022-11-05T06:11:59.926Z,1008.78
2022-11-05T06:12:59.931Z,1008.76
2022-11-05T06:13:59.927Z,1008.78
2022-11-05T06:14:59.939Z,1008.80
2022-11-05T06:15:59.931Z,1008.82
2022-11-05T06:16:59.907Z,1008.78
2022-11-05T06:17:59.919Z,1008.84
2022-11-05T06:18:59.923Z,1008.83
2022-11-05T06:19:59.904Z,1008.84
2022-11-05T06:20:59.913Z,1008.90
2022-11-05T06:21:59.899Z,1008.93
2022-11-05T06:22:59.906Z,1008.96
2022-11-05T06:23:59.923Z,1008.97
2022-11-05T06:24:59.896Z,1009.00
2022-11-05T06:25:59.895Z,1009.02
2022-11-05T06:26:59.905Z,1009.03
2022-11-05T06:27:59.901Z,1009.04
2022-11-05T06:28:59.915Z,1009.05
2022-11-05T06:29:59.887Z,1009.14
2022-11-05T06:30:59.898Z,1009.10
2022-11-05T06:31:59.913Z,1009.22
2022-11-05T06:32:59.898Z,1009.19
2022-11-05T06:33:59.888Z,1009.26
2022-11-05T06:34:59.894Z,1009.23
2022-11-05T06:35:59.883Z,1009.19
2022-11-05T06:36:59.916Z,1009.25
2022-11-05T06:37:59.884Z,1009.27
2022-11-05T06:38:59.888Z,1009.30
2022-11-05T06:39:59.926Z,1009.31
2022-11-05T06:40:59.874Z,1009.27
2022-11-05T06:42:59.865Z,1009.25
2022-11-05T06:43:59.904Z,1009.28
2022-11-05T06:44:59.869Z,1009.29
2022-11-05T06:45:59.870Z,1009.30
2022-11-05T06:46:59.864Z,1009.31
2022-11-05T06:47:59.860Z,1009.32
2022-11-05T06:48:59.860Z,1009.32
2022-11-05T06:49:59.877Z,1009.35
2022-11-05T06:50:59.848Z,1009.37
2022-11-05T06:51:59.863Z,1009.37
2022-11-05T06:52:59.873Z,1009.41
2022-11-05T06:53:59.853Z,1009.42
2022-11-05T06:54:59.854Z,1009.44
2022-11-05T06:55:59.848Z,1009.47
2022-11-05T06:56:59.845Z,1009.43
2022-11-05T06:57:59.842Z,1009.48
2022-11-05T06:58:59.858Z,1009.47
2022-11-05T07:00:03.292Z,1009.53
2022-11-05T07:00:59.926Z,1009.52
2022-11-05T07:01:59.897Z,1009.54
2022-11-05T07:02:59.862Z,1009.55
2022-11-05T07:03:59.824Z,1009.60
2022-11-05T07:04:59.826Z,1009.59
2022-11-05T07:05:59.831Z,1009.60
2022-11-05T07:06:59.860Z,1009.54
2022-11-05T07:07:59.824Z,1009.61
2022-11-05T07:08:59.829Z,1009.67
2022-11-05T07:09:59.827Z,1009.64
2022-11-05T07:10:59.830Z,1009.69
2022-11-05T07:11:59.815Z,1009.73
2022-11-05T07:13:03.729Z,1009.71
2022-11-05T07:13:59.821Z,1009.67
2022-11-05T07:14:59.827Z,1009.69
2022-11-05T07:15:59.817Z,1009.69
2022-11-05T07:16:59.811Z,1009.68
2022-11-05T07:17:59.805Z,1009.69
2022-11-05T07:18:59.817Z,1009.73
2022-11-05T07:19:59.808Z,1009.75
2022-11-05T07:20:59.825Z,1009.78
2022-11-05T07:21:59.795Z,1009.80
2022-11-05T07:22:59.807Z,1009.80
2022-11-05T07:23:59.801Z,1009.80
2022-11-05T07:24:59.808Z,1009.84
2022-11-05T07:25:59.799Z,1009.85
2022-11-05T07:26:59.799Z,1009.86
2022-11-05T07:27:59.807Z,1009.87
2022-11-05T07:28:59.802Z,1009.80
2022-11-05T07:29:59.787Z,1009.92
2022-11-05T07:30:59.787Z,1009.89
2022-11-05T07:31:59.777Z,1009.87
2022-11-05T07:32:59.791Z,1009.91
2022-11-05T07:33:59.771Z,1009.93
2022-11-05T07:34:59.790Z,1009.93
2022-11-05T07:35:59.788Z,1009.94
2022-11-05T07:36:59.779Z,1009.96
2022-11-05T07:37:59.785Z,1009.97
2022-11-05T07:39:00.650Z,1009.94
2022-11-05T07:39:59.774Z,1009.99
2022-11-05T07:40:59.773Z,1009.95
2022-11-05T07:41:59.769Z,1009.94
2022-11-05T07:42:59.772Z,1009.97
2022-11-05T07:43:59.766Z,1010.02
2022-11-05T07:44:59.769Z,1010.00
2022-11-05T07:45:59.762Z,1010.02
2022-11-05T07:46:59.768Z,1010.02
2022-11-05T07:47:59.757Z,1010.03
2022-11-05T07:48:59.780Z,1010.01
2022-11-05T07:49:59.786Z,1010.05
2022-11-05T07:50:59.746Z,1009.99
2022-11-05T07:51:59.744Z,1010.02
2022-11-05T07:52:59.746Z,1010.07
2022-11-05T07:53:59.753Z,1010.10
2022-11-05T07:54:59.755Z,1010.09
2022-11-05T07:55:59.736Z,1010.10
2022-11-05T07:56:59.758Z,1010.13
2022-11-05T07:57:59.739Z,1010.13
2022-11-05T07:58:59.740Z,1010.10
2022-11-05T07:59:59.755Z,1010.11
2022-11-05T08:00:59.964Z,1010.07
2022-11-05T08:01:59.964Z,1010.08
2022-11-05T08:03:06.771Z,1010.17
2022-11-05T08:03:59.730Z,1010.18
2022-11-05T08:04:59.724Z,1010.22
2022-11-05T08:05:59.744Z,1010.12
2022-11-05T08:06:59.745Z,1010.10
2022-11-05T08:07:59.726Z,1010.09
2022-11-05T08:08:59.733Z,1010.08
2022-11-05T08:09:59.730Z,1010.20
2022-11-05T08:10:59.729Z,1010.20
2022-11-05T08:12:02.892Z,1010.22
2022-11-05T08:12:59.719Z,1010.21
2022-11-05T08:13:59.725Z,1010.22
2022-11-05T08:14:59.713Z,1010.21
2022-11-05T08:15:59.742Z,1010.26
2022-11-05T08:16:59.721Z,1010.28
2022-11-05T08:17:59.718Z,1010.28
2022-11-05T08:18:59.710Z,1010.27
2022-11-05T08:19:59.721Z,1010.30
2022-11-05T08:20:59.718Z,1010.33
2022-11-05T08:21:59.730Z,1010.30
2022-11-05T08:22:59.721Z,1010.34
2022-11-05T08:23:59.717Z,1010.35
2022-11-05T08:25:05.586Z,1010.42
2022-11-05T08:25:59.713Z,1010.47
2022-11-05T08:26:59.728Z,1010.49
2022-11-05T08:27:59.701Z,1010.56
2022-11-05T08:28:59.708Z,1010.51
2022-11-05T08:29:59.721Z,1010.54
2022-11-05T08:30:59.695Z,1010.57
2022-11-05T08:31:59.736Z,1010.57
2022-11-05T08:32:59.694Z,1010.59
2022-11-05T08:34:02.468Z,1010.60
2022-11-05T08:34:59.693Z,1010.64
2022-11-05T08:35:59.692Z,1010.64
2022-11-05T08:36:59.703Z,1010.63
2022-11-05T08:37:59.697Z,1010.66
2022-11-05T08:38:59.721Z,1010.64
2022-11-05T08:39:59.716Z,1010.66
2022-11-05T08:40:59.688Z,1010.71
2022-11-05T08:41:59.704Z,1010.65
2022-11-05T08:42:59.685Z,1010.70
2022-11-05T08:43:59.695Z,1010.63
2022-11-05T08:44:59.709Z,1010.68
2022-11-05T08:45:59.690Z,1010.67
2022-11-05T08:46:59.693Z,1010.65
2022-11-05T08:47:59.694Z,1010.67
2022-11-05T08:48:59.680Z,1010.62
2022-11-05T08:49:59.695Z,1010.69
2022-11-05T08:50:59.793Z,1010.69
2022-11-05T08:51:59.690Z,1010.66
2022-11-05T08:52:59.718Z,1010.61
2022-11-05T08:53:59.677Z,1010.65
2022-11-05T08:54:59.689Z,1010.64
2022-11-05T08:55:59.724Z,1010.70
2022-11-05T08:56:59.671Z,1010.68
2022-11-05T08:57:59.698Z,1010.73
2022-11-05T08:58:59.688Z,1010.75
2022-11-05T08:59:59.681Z,1010.74
2022-11-05T09:01:04.799Z,1010.74
2022-11-05T09:01:59.827Z,1010.76
2022-11-05T09:02:59.697Z,1010.73
2022-11-05T09:03:59.671Z,1010.76
2022-11-05T09:04:59.675Z,1010.73
2022-11-05T09:05:59.672Z,1010.77
2022-11-05T09:06:59.684Z,1010.80
2022-11-05T09:08:01.557Z,1010.74
2022-11-05T09:08:59.675Z,1010.82
2022-11-05T09:09:59.684Z,1010.82
2022-11-05T09:10:59.685Z,1010.78
2022-11-05T09:12:12.306Z,1010.91
2022-11-05T09:12:59.697Z,1010.90
2022-11-05T09:13:59.665Z,1010.94
2022-11-05T09:14:59.687Z,1010.99
2022-11-05T09:15:59.673Z,1010.99
2022-11-05T09:16:59.672Z,1010.93
2022-11-05T09:17:59.679Z,1010.94
2022-11-05T09:18:59.664Z,1011.00
2022-11-05T09:19:59.668Z,1010.95
2022-11-05T09:20:59.679Z,1011.03
2022-11-05T09:21:59.771Z,1011.03
2022-11-05T09:22:59.670Z,1011.01
2022-11-05T09:23:59.670Z,1011.07
2022-11-05T09:24:59.674Z,1011.04
2022-11-05T09:25:59.668Z,1011.04
2022-11-05T09:26:59.658Z,1011.03
2022-11-05T09:27:59.667Z,1011.11
2022-11-05T09:28:59.693Z,1011.07
2022-11-05T09:29:59.689Z,1011.03
2022-11-05T09:30:59.668Z,1011.04
2022-11-05T09:31:59.654Z,1011.03
2022-11-05T09:32:59.656Z,1011.06
2022-11-05T09:33:59.654Z,1011.03
2022-11-05T09:34:59.672Z,1011.04
2022-11-05T09:35:59.653Z,1011.09
2022-11-05T09:36:59.663Z,1011.12
2022-11-05T09:38:01.108Z,1011.15
2022-11-05T09:38:59.681Z,1011.15
2022-11-05T09:39:59.651Z,1011.22
2022-11-05T09:40:59.654Z,1011.25
2022-11-05T09:41:59.654Z,1011.31
2022-11-05T09:42:59.674Z,1011.29
2022-11-05T09:43:59.665Z,1011.30
2022-11-05T09:44:59.676Z,1011.30
2022-11-05T09:45:59.673Z,1011.30
2022-11-05T09:46:59.657Z,1011.28
2022-11-05T09:47:59.661Z,1011.23
2022-11-05T09:48:59.656Z,1011.22
2022-11-05T09:49:59.656Z,1011.26
2022-11-05T09:50:59.670Z,1011.22
2022-11-05T09:51:59.682Z,1011.23
2022-11-05T09:52:59.668Z,1011.21
2022-11-05T09:53:59.669Z,1011.25
2022-11-05T09:54:59.692Z,1011.23
2022-11-05T09:55:59.682Z,1011.26
2022-11-05T09:56:59.665Z,1011.22
2022-11-05T09:57:59.660Z,1011.25
2022-11-05T09:58:59.670Z,1011.24
2022-11-05T09:59:59.668Z,1011.29
2022-11-05T10:00:59.760Z,1011.35
2022-11-05T10:01:59.756Z,1011.34
2022-11-05T10:02:59.680Z,1011.41
2022-11-05T10:03:59.679Z,1011.41
2022-11-05T10:05:02.501Z,1011.47
2022-11-05T10:05:59.672Z,1011.51
2022-11-05T10:06:59.665Z,1011.51
2022-11-05T10:07:59.677Z,1011.49
2022-11-05T10:08:59.690Z,1011.51
2022-11-05T10:09:59.668Z,1011.49
2022-11-05T10:10:59.677Z,1011.52
2022-11-05T10:11:59.665Z,1011.51
2022-11-05T10:12:59.685Z,1011.52
2022-11-05T10:13:59.699Z,1011.56
2022-11-05T10:14:59.676Z,1011.52
2022-11-05T10:15:59.688Z,1011.54
2022-11-05T10:16:59.676Z,1011.49
2022-11-05T10:17:59.688Z,1011.53
2022-11-05T10:18:59.696Z,1011.58
2022-11-05T10:19:59.682Z,1011.52
2022-11-05T10:20:59.687Z,1011.55
2022-11-05T10:22:06.505Z,1011.51
2022-11-05T10:22:59.700Z,1011.53
2022-11-05T10:23:59.723Z,1011.54
2022-11-05T10:24:59.713Z,1011.59
2022-11-05T10:25:59.715Z,1011.58
2022-11-05T10:26:59.724Z,1011.55
2022-11-05T10:27:59.711Z,1011.57
2022-11-05T10:28:59.728Z,1011.54
2022-11-05T10:29:59.724Z,1011.57
2022-11-05T10:30:59.724Z,1011.54
2022-11-05T10:31:59.744Z,1011.54
2022-11-05T10:32:59.717Z,1011.50
2022-11-05T10:33:59.739Z,1011.54
2022-11-05T10:34:59.759Z,1011.53
2022-11-05T10:35:59.735Z,1011.59
2022-11-05T10:36:59.724Z,1011.57
2022-11-05T10:37:59.727Z,1011.57
2022-11-05T10:38:59.732Z,1011.57
2022-11-05T10:39:59.738Z,1011.62
2022-11-05T10:40:59.755Z,1011.60
2022-11-05T10:41:59.749Z,1011.61
2022-11-05T10:42:59.750Z,1011.64
2022-11-05T10:43:59.736Z,1011.68
2022-11-05T10:44:59.766Z,1011.65
2022-11-05T10:45:59.757Z,1011.65
2022-11-05T10:46:59.777Z,1011.64
2022-11-05T10:47:59.756Z,1011.69
2022-11-05T10:48:59.768Z,1011.71
2022-11-05T10:49:59.770Z,1011.69
2022-11-05T10:50:59.762Z,1011.76
2022-11-05T10:51:59.760Z,1011.74
2022-11-05T10:52:59.751Z,1011.74
2022-11-05T10:54:02.072Z,1011.84
2022-11-05T10:54:59.763Z,1011.81
2022-11-05T10:55:59.774Z,1011.85
2022-11-05T10:56:59.836Z,1011.90
2022-11-05T10:57:59.755Z,1011.91
2022-11-05T10:58:59.764Z,1011.91
2022-11-05T10:59:59.827Z,1011.94
2022-11-05T11:00:59.812Z,1011.94
2022-11-05T11:02:00.179Z,1011.89
2022-11-05T11:02:59.773Z,1011.92
2022-11-05T11:03:59.777Z,1011.94
2022-11-05T11:04:59.781Z,1011.99
2022-11-05T11:05:59.769Z,1011.92
2022-11-05T11:06:59.828Z,1011.92
2022-11-05T11:07:59.790Z,1011.90
2022-11-05T11:08:59.784Z,1011.86
2022-11-05T11:09:59.775Z,1011.83
2022-11-05T11:10:59.772Z,1011.86
2022-11-05T11:11:59.777Z,1011.90
2022-11-05T11:12:59.785Z,1011.89
2022-11-05T11:13:59.810Z,1011.90
2022-11-05T11:14:59.838Z,1011.92
2022-11-05T11:15:59.789Z,1011.93
2022-11-05T11:16:59.853Z,1011.85
2022-11-05T11:17:59.811Z,1011.87
2022-11-05T11:18:59.804Z,1011.83
2022-11-05T11:20:01.803Z,1011.82
2022-11-05T11:20:59.822Z,1011.84
2022-11-05T11:21:59.862Z,1011.85
2022-11-05T11:22:59.800Z,1011.82
2022-11-05T11:24:00.349Z,1011.88
2022-11-05T11:24:59.826Z,1011.87
2022-11-05T11:25:59.838Z,1011.82
2022-11-05T11:26:59.807Z,1011.75
2022-11-05T11:27:59.831Z,1011.81
2022-11-05T11:28:59.824Z,1011.80
2022-11-05T11:29:59.932Z,1011.80
2022-11-05T11:30:59.846Z,1011.77
2022-11-05T11:31:59.865Z,1011.76
2022-11-05T11:32:59.823Z,1011.79
2022-11-05T11:33:59.827Z,1011.84
2022-11-05T11:34:59.829Z,1011.83
2022-11-05T11:35:59.890Z,1011.81
2022-11-05T11:36:59.914Z,1011.77
2022-11-05T11:37:59.849Z,1011.82
2022-11-05T11:38:59.850Z,1011.80
2022-11-05T11:40:02.330Z,1011.81
2022-11-05T11:40:59.873Z,1011.85
2022-11-05T11:42:01.832Z,1011.83
2022-11-05T11:42:59.851Z,1011.81
2022-11-05T11:43:59.851Z,1011.85
2022-11-05T11:44:59.877Z,1011.83
2022-11-05T11:46:05.404Z,1011.90
2022-11-05T11:46:59.860Z,1011.95
2022-11-05T11:48:00.826Z,1011.93
2022-11-05T11:48:59.893Z,1011.96
2022-11-05T11:49:59.892Z,1011.93
2022-11-05T11:50:59.867Z,1011.89
2022-11-05T11:51:59.864Z,1011.91
2022-11-05T11:52:59.864Z,1011.91
2022-11-05T11:53:59.921Z,1011.87
2022-11-05T11:55:01.842Z,1011.92
2022-11-05T11:56:00.883Z,1011.91
2022-11-05T11:56:59.858Z,1011.84
2022-11-05T11:57:59.984Z,1011.87
2022-11-05T11:58:59.911Z,1011.90
2022-11-05T12:00:08.780Z,1011.86
2022-11-05T12:00:59.866Z,1011.84
2022-11-05T12:02:00.076Z,1011.84
2022-11-05T12:03:02.140Z,1011.80
2022-11-05T12:03:59.899Z,1011.90
2022-11-05T12:04:59.895Z,1011.90
2022-11-05T12:06:01.333Z,1011.90
2022-11-05T12:07:04.307Z,1011.93
2022-11-05T12:08:02.314Z,1011.88